Aérodrome :
LOGIN :

S'inscrire | Disclaimer

   EN    FR    IT 

 










Légende :    VFR   VFR Marginal   IFR   IFR Intensif   IFR Très Intensif
Visi : 
Plafond : 
>= 8 km
>= 3000ft
5 à 8 km
1000 à 3000 ft
1500m à 5 km
500 à 1000 ft
800 à 1500m
200 à 500 ft
< 800m
< 200 ft
Symboles :   Orages  Brouillard  Fortes neiges  Fortes précipitations  Vent > 20 kt
SIGMETs :   Divers  Orages  Givrage  Turbulence  Onde Orograph.  Cendres Volcan.






- Altitude de l'aérodrome : 1475 ft


LSZC - Buochs Stans

DERNIER METAR :
  • 221050Z AUTO VRB01KT 9999 OVC024 14/12 Q1023

METARs EXPIRÉS :
  • 221020Z AUTO VRB01KT 9999 OVC024 14/12 Q1024
  • 220950Z AUTO VRB01KT 9999 BKN022 14/12 Q1024
  • 220920Z AUTO VRB01KT 7000 FEW006 OVC022 14/13 Q1024
  • 220850Z VRB01KT 7000 FEW004 OVC022 14/13 Q1024
  • 220820Z VRB01KT 7000 FEW004 OVC021 13/12 Q1023

TAF TAF LSZC
Valide du 22 à 09h jusqu'au 22 à 18h UTC


220825Z 2209/2218 VRB03KT 6000 FEW004 OVC021



MET'MAP, la Météo Aéronautique d'un coup d'oeil ! - Copyright ORBIFLY Décembre 2007 - Disclaimer

ORBIFLY MET'MAP TEAM :

Programmation & Développement : Alexandra Zaïnal
Conception & Développement : Baudouin d'Aumeries
Co-Programmation & Développement : Marc-Olivier Méhu
Soutien technique & logistique : Manuel Goepfert

Contact : metmap@orbifly.com




SOURCES & CREDITS :

   NOAA